KOMK/OMK METAR and TAF weather

Enter ICAO airport designator
Station Type Date Time Source
KOMK METAR 2019/02/16 06:53 UTC NOAA

KOMK 160653Z AUTO 02003KT 10SM FEW018 OVC025 M01/M02 A2975 RMK AO2 SLP090 T10111022


Station Type Date Time Source
KOMK Decoded METAR 2019/02/16 06:53 UTC NOAA

OMAK AIRPORT, WA, United States (KOMK) 48-28N 119-31W 395M
Feb 16, 2019 - 01:53 AM EST / 2019.02.16 0653 UTC
Wind: from the NNE (020 degrees) at 3 MPH (3 KT):0
Visibility: 10 mile(s):0
Sky conditions: overcast
Temperature: 30.0 F (-1.1 C)
Dew Point: 28.0 F (-2.2 C)
Relative Humidity: 92%
Pressure (altimeter): 29.75 in. Hg (1007 hPa)
ob: KOMK 160653Z AUTO 02003KT 10SM FEW018 OVC025 M01/M02 A2975 RMK AO2 SLP090 T10111022
cycle: 7

Station Type Date Time Source
KOMK TAF UTC NOAA

Error!


Example: see airport list